createdAt,value
2022-10-28T00:00:14.179Z,9.00
2022-10-28T00:02:41.021Z,7.90
2022-10-28T00:05:08.821Z,6.60
2022-10-28T00:07:35.899Z,5.38
2022-10-28T00:10:02.847Z,4.32
2022-10-28T00:12:30.311Z,4.05
2022-10-28T00:14:57.245Z,4.35
2022-10-28T00:19:55.840Z,3.53
2022-10-28T00:22:22.868Z,3.35
2022-10-28T00:24:49.537Z,3.22
2022-10-28T00:27:16.250Z,3.70
2022-10-28T00:29:43.150Z,3.35
2022-10-28T00:32:09.837Z,3.70
2022-10-28T00:34:36.520Z,4.57
2022-10-28T00:37:04.250Z,4.65
2022-10-28T00:39:30.977Z,4.07
2022-10-28T00:42:03.988Z,4.18
2022-10-28T00:44:40.214Z,3.90
2022-10-28T00:47:16.590Z,4.15
2022-10-28T00:49:48.424Z,4.03
2022-10-28T00:52:19.622Z,3.85
2022-10-28T00:54:47.674Z,3.50
2022-10-28T00:57:18.617Z,3.47
2022-10-28T00:59:51.914Z,3.47
2022-10-28T01:02:19.906Z,4.80
2022-10-28T01:04:49.149Z,5.20
2022-10-28T01:07:17.145Z,4.63
2022-10-28T01:09:43.981Z,4.63
2022-10-28T01:12:45.289Z,4.00
2022-10-28T01:15:24.392Z,3.95
2022-10-28T01:18:25.181Z,3.80
2022-10-28T01:21:34.014Z,4.00
2022-10-28T01:24:12.804Z,3.60
2022-10-28T01:27:05.369Z,3.22
2022-10-28T01:29:49.842Z,3.08
2022-10-28T01:32:39.701Z,3.08
2022-10-28T01:35:32.499Z,2.70
2022-10-28T01:38:21.662Z,2.58
2022-10-28T01:40:55.628Z,4.00
2022-10-28T01:43:29.574Z,5.75
2022-10-28T01:46:11.829Z,3.28
2022-10-28T01:51:44.321Z,2.75
2022-10-28T01:54:13.722Z,2.72
2022-10-28T01:56:42.896Z,2.63
2022-10-28T01:59:15.089Z,2.47
2022-10-28T02:01:41.972Z,2.55
2022-10-28T02:04:08.887Z,2.50
2022-10-28T02:06:38.869Z,3.20
2022-10-28T02:09:40.906Z,2.95
2022-10-28T02:12:22.771Z,3.00
2022-10-28T02:14:55.549Z,3.20
2022-10-28T02:17:44.103Z,4.13
2022-10-28T02:20:16.902Z,3.53
2022-10-28T02:22:51.288Z,3.90
2022-10-28T02:26:05.932Z,3.20
2022-10-28T02:28:41.905Z,3.78
2022-10-28T02:31:24.841Z,3.58
2022-10-28T02:33:57.510Z,4.13
2022-10-28T02:36:25.867Z,3.88
2022-10-28T02:38:55.556Z,3.65
2022-10-28T02:41:44.904Z,4.05
2022-10-28T02:44:15.553Z,3.53
2022-10-28T02:46:45.228Z,3.72
2022-10-28T02:49:14.509Z,3.40
2022-10-28T02:51:53.809Z,4.00
2022-10-28T02:54:29.074Z,3.78
2022-10-28T02:57:01.363Z,3.97
2022-10-28T02:59:29.106Z,3.75
2022-10-28T03:01:56.513Z,4.30
2022-10-28T03:04:23.260Z,3.60
2022-10-28T03:06:50.008Z,3.78
2022-10-28T03:09:16.754Z,3.75
2022-10-28T03:11:43.553Z,3.70
2022-10-28T03:14:13.174Z,3.55
2022-10-28T03:16:42.087Z,3.33
2022-10-28T03:21:40.433Z,3.40
2022-10-28T03:24:07.345Z,3.22
2022-10-28T03:26:34.110Z,3.13
2022-10-28T03:29:00.781Z,3.45
2022-10-28T03:31:27.491Z,2.88
2022-10-28T03:33:54.202Z,3.17
2022-10-28T03:36:20.908Z,3.08
2022-10-28T03:38:47.578Z,3.53
2022-10-28T03:41:14.343Z,3.47
2022-10-28T03:43:41.301Z,3.30
2022-10-28T03:46:08.007Z,3.30
2022-10-28T03:48:34.680Z,2.95
2022-10-28T03:51:01.361Z,3.33
2022-10-28T03:53:31.175Z,3.00
2022-10-28T03:56:00.189Z,3.25
2022-10-28T03:58:27.908Z,3.78
2022-10-28T04:00:55.281Z,3.13
2022-10-28T04:03:23.785Z,3.45
2022-10-28T04:05:50.780Z,3.63
2022-10-28T04:08:18.520Z,2.90
2022-10-28T04:10:47.420Z,3.25
2022-10-28T04:13:15.295Z,2.80
2022-10-28T04:15:41.987Z,3.47
2022-10-28T04:18:09.085Z,3.65
2022-10-28T04:20:35.837Z,3.05
2022-10-28T04:23:02.882Z,3.20
2022-10-28T04:25:29.978Z,3.55
2022-10-28T04:27:56.874Z,3.28
2022-10-28T04:30:24.114Z,2.88
2022-10-28T04:32:50.746Z,2.90
2022-10-28T04:35:17.547Z,2.55
2022-10-28T04:37:44.273Z,3.00
2022-10-28T04:40:11.321Z,3.05
2022-10-28T04:42:38.001Z,2.70
2022-10-28T04:45:05.130Z,2.45
2022-10-28T04:47:31.766Z,2.85
2022-10-28T04:49:58.521Z,2.97
2022-10-28T04:52:25.224Z,3.00
2022-10-28T04:54:51.959Z,2.55
2022-10-28T04:57:18.696Z,3.47
2022-10-28T04:59:46.808Z,3.15
2022-10-28T05:02:13.839Z,3.05
2022-10-28T05:04:40.594Z,3.40
2022-10-28T05:07:07.535Z,3.33
2022-10-28T05:09:34.194Z,3.72
2022-10-28T05:12:00.887Z,3.05
2022-10-28T05:14:27.668Z,3.67
2022-10-28T05:16:54.447Z,3.60
2022-10-28T05:19:21.105Z,3.88
2022-10-28T05:21:47.756Z,3.63
2022-10-28T05:24:14.413Z,3.80
2022-10-28T05:26:41.139Z,3.33
2022-10-28T05:29:07.863Z,3.40
2022-10-28T05:31:34.585Z,3.80
2022-10-28T05:34:01.214Z,3.10
2022-10-28T05:36:28.031Z,3.10
2022-10-28T05:38:54.719Z,2.63
2022-10-28T05:41:23.204Z,3.13
2022-10-28T05:43:51.400Z,2.80
2022-10-28T05:46:18.061Z,7.32
2022-10-28T05:48:44.711Z,6.65
2022-10-28T05:51:11.420Z,7.45
2022-10-28T05:53:38.337Z,6.35
2022-10-28T05:56:05.124Z,5.35
2022-10-28T05:58:31.770Z,4.40
2022-10-28T06:00:58.472Z,4.05
2022-10-28T06:03:30.059Z,3.67
2022-10-28T06:05:58.678Z,3.10
2022-10-28T06:08:25.395Z,2.65
2022-10-28T06:10:54.960Z,3.00
2022-10-28T06:13:22.025Z,2.60
2022-10-28T06:15:55.647Z,3.45
2022-10-28T06:18:23.021Z,4.40
2022-10-28T06:20:55.103Z,3.55
2022-10-28T06:23:23.013Z,3.45
2022-10-28T06:25:50.125Z,4.00
2022-10-28T06:28:16.854Z,3.65
2022-10-28T06:30:43.656Z,4.07
2022-10-28T06:33:10.335Z,4.13
2022-10-28T06:35:37.101Z,4.10
2022-10-28T06:38:08.480Z,4.28
2022-10-28T06:40:36.475Z,4.80
2022-10-28T06:43:05.479Z,4.15
2022-10-28T06:45:33.710Z,3.60
2022-10-28T06:48:05.611Z,3.47
2022-10-28T06:50:34.432Z,3.65
2022-10-28T06:53:01.138Z,4.07
2022-10-28T06:55:28.570Z,3.78
2022-10-28T06:58:00.023Z,3.88
2022-10-28T07:00:27.043Z,3.70
2022-10-28T07:02:54.470Z,3.75
2022-10-28T07:05:22.221Z,4.15
2022-10-28T07:07:48.893Z,4.50
2022-10-28T07:10:16.038Z,3.78
2022-10-28T07:12:42.736Z,4.07
2022-10-28T07:15:10.472Z,4.57
2022-10-28T07:17:37.190Z,4.40
2022-10-28T07:20:04.702Z,4.00
2022-10-28T07:22:31.369Z,4.22
2022-10-28T07:24:58.087Z,3.80
2022-10-28T07:27:24.784Z,5.25
2022-10-28T07:29:51.458Z,4.97
2022-10-28T07:32:18.298Z,5.63
2022-10-28T07:34:45.105Z,5.30
2022-10-28T07:37:12.838Z,4.20
2022-10-28T07:39:39.638Z,3.78
2022-10-28T07:42:06.301Z,3.92
2022-10-28T07:44:32.996Z,3.60
2022-10-28T07:46:59.757Z,4.05
2022-10-28T07:49:26.583Z,3.78
2022-10-28T07:51:53.402Z,4.43
2022-10-28T07:54:20.099Z,4.60
2022-10-28T07:56:46.943Z,5.57
2022-10-28T07:59:13.665Z,5.35
2022-10-28T08:01:40.580Z,4.70
2022-10-28T08:04:07.575Z,5.05
2022-10-28T08:06:35.690Z,4.68
2022-10-28T08:09:03.358Z,4.30
2022-10-28T08:11:30.074Z,4.35
2022-10-28T08:13:57.426Z,4.82
2022-10-28T08:16:24.934Z,4.45
2022-10-28T08:18:53.195Z,4.63
2022-10-28T08:21:20.042Z,5.47
2022-10-28T08:23:47.153Z,5.28
2022-10-28T08:26:17.113Z,5.20
2022-10-28T08:28:43.785Z,4.93
2022-10-28T08:31:12.490Z,5.97
2022-10-28T08:33:47.232Z,5.15
2022-10-28T08:36:16.293Z,5.72
2022-10-28T08:38:45.755Z,5.10
2022-10-28T08:41:18.698Z,4.97
2022-10-28T08:44:04.143Z,5.03
2022-10-28T08:47:08.428Z,5.22
2022-10-28T08:49:39.336Z,4.80
2022-10-28T08:52:32.243Z,4.43
2022-10-28T08:55:06.305Z,4.63
2022-10-28T08:57:46.162Z,5.25
2022-10-28T09:00:23.217Z,5.35
2022-10-28T09:02:58.017Z,5.82
2022-10-28T09:05:26.592Z,5.57
2022-10-28T09:07:54.866Z,5.15
2022-10-28T09:10:32.511Z,4.07
2022-10-28T09:13:23.931Z,4.28
2022-10-28T09:16:15.265Z,4.03
2022-10-28T09:18:52.185Z,4.38
2022-10-28T09:21:20.935Z,4.60
2022-10-28T09:23:57.990Z,4.50
2022-10-28T09:26:37.537Z,4.25
2022-10-28T09:29:35.745Z,5.32
2022-10-28T09:32:34.665Z,4.55
2022-10-28T09:35:11.330Z,4.68
2022-10-28T09:37:45.914Z,5.00
2022-10-28T09:40:19.811Z,4.75
2022-10-28T09:42:52.472Z,4.70
2022-10-28T09:45:25.000Z,5.05
2022-10-28T09:48:10.438Z,5.55
2022-10-28T09:50:37.310Z,5.45
2022-10-28T09:53:17.775Z,7.28
2022-10-28T09:55:44.613Z,6.30
2022-10-28T09:58:13.905Z,6.43
2022-10-28T10:00:41.043Z,6.75
2022-10-28T10:03:07.702Z,6.28
2022-10-28T10:05:41.256Z,5.90
2022-10-28T10:08:14.501Z,6.05
2022-10-28T10:10:56.477Z,6.50
2022-10-28T10:13:35.117Z,6.68
2022-10-28T10:16:14.062Z,7.18
2022-10-28T10:18:47.170Z,8.38
2022-10-28T10:21:14.798Z,7.20
2022-10-28T10:23:41.705Z,6.25
2022-10-28T10:26:17.075Z,7.30
2022-10-28T10:28:48.914Z,6.97
2022-10-28T10:31:29.833Z,7.38
2022-10-28T10:33:57.867Z,6.80
2022-10-28T10:36:28.899Z,7.10
2022-10-28T10:39:00.773Z,7.30
2022-10-28T10:41:44.958Z,7.47
2022-10-28T10:44:20.795Z,6.53
2022-10-28T10:46:53.407Z,7.07
2022-10-28T10:49:20.157Z,7.20
2022-10-28T10:51:59.074Z,6.72
2022-10-28T10:54:28.516Z,6.60
2022-10-28T10:57:06.306Z,6.47
2022-10-28T10:59:37.689Z,5.72
2022-10-28T11:02:19.198Z,6.32
2022-10-28T11:04:55.361Z,4.40
2022-10-28T11:07:22.657Z,5.25
2022-10-28T11:09:50.995Z,5.05
2022-10-28T11:12:30.547Z,5.47
2022-10-28T11:15:02.351Z,5.57
2022-10-28T11:17:34.865Z,5.68
2022-10-28T11:20:25.052Z,5.68
2022-10-28T11:23:29.607Z,5.90
2022-10-28T11:26:02.460Z,5.43
2022-10-28T11:28:38.222Z,5.35
2022-10-28T11:31:22.542Z,5.88
2022-10-28T11:34:10.977Z,6.30
2022-10-28T11:36:59.916Z,6.05
2022-10-28T11:39:34.410Z,5.60
2022-10-28T11:42:41.701Z,5.88
2022-10-28T11:45:08.467Z,4.90
2022-10-28T11:48:02.047Z,4.68
2022-10-28T11:50:41.152Z,4.97
2022-10-28T11:53:38.276Z,4.15
2022-10-28T11:56:22.231Z,4.65
2022-10-28T11:59:25.014Z,4.55
2022-10-28T12:02:05.233Z,4.15
2022-10-28T12:05:03.090Z,3.92
2022-10-28T12:08:15.784Z,6.35
2022-10-28T12:11:09.408Z,4.22
2022-10-28T12:13:48.320Z,4.38
2022-10-28T12:16:20.709Z,4.28
2022-10-28T12:19:27.059Z,4.65
2022-10-28T12:22:11.771Z,4.00
2022-10-28T12:24:41.203Z,3.95
2022-10-28T12:27:18.165Z,4.05
2022-10-28T12:29:51.364Z,3.55
2022-10-28T12:32:38.079Z,3.90
2022-10-28T12:35:23.241Z,3.80
2022-10-28T12:37:57.308Z,3.58
2022-10-28T12:40:53.572Z,3.35
2022-10-28T12:43:40.968Z,4.20
2022-10-28T12:46:19.547Z,4.45
2022-10-28T12:48:58.301Z,3.90
2022-10-28T12:51:33.801Z,3.80
2022-10-28T12:54:17.032Z,4.00
2022-10-28T12:56:55.165Z,4.80
2022-10-28T12:59:30.811Z,3.97
2022-10-28T13:02:01.355Z,4.18
2022-10-28T13:04:29.048Z,3.78
2022-10-28T13:07:10.880Z,3.85
2022-10-28T13:10:05.358Z,3.72
2022-10-28T13:12:41.081Z,3.33
2022-10-28T13:15:34.388Z,3.35
2022-10-28T13:18:25.897Z,3.15
2022-10-28T13:21:04.721Z,3.70
2022-10-28T13:23:43.748Z,4.00
2022-10-28T13:26:31.098Z,3.65
2022-10-28T13:29:00.091Z,3.60
2022-10-28T13:31:42.011Z,4.10
2022-10-28T13:34:11.357Z,3.80
2022-10-28T13:36:42.903Z,3.63
2022-10-28T13:39:28.897Z,4.20
2022-10-28T13:42:32.062Z,3.50
2022-10-28T13:45:01.163Z,3.85
2022-10-28T13:47:35.503Z,4.32
2022-10-28T13:50:08.664Z,4.22
2022-10-28T13:52:37.716Z,3.92
2022-10-28T13:55:47.940Z,4.03
2022-10-28T13:58:23.875Z,4.40
2022-10-28T14:00:53.474Z,4.65
2022-10-28T14:03:27.997Z,4.30
2022-10-28T14:05:59.670Z,4.18
2022-10-28T14:08:40.697Z,3.80
2022-10-28T14:11:11.600Z,3.85
2022-10-28T14:13:51.025Z,4.15
2022-10-28T14:16:26.590Z,3.80
2022-10-28T14:19:11.586Z,3.88
2022-10-28T14:21:46.454Z,3.38
2022-10-28T14:24:39.940Z,3.22
2022-10-28T14:27:06.659Z,3.70
2022-10-28T14:29:46.021Z,3.25
2022-10-28T14:32:30.731Z,3.47
2022-10-28T14:35:05.903Z,3.40
2022-10-28T14:37:32.539Z,3.35
2022-10-28T14:40:19.633Z,3.33
2022-10-28T14:43:11.081Z,3.08
2022-10-28T14:45:54.705Z,3.28
2022-10-28T14:48:46.288Z,3.15
2022-10-28T14:51:16.763Z,3.35
2022-10-28T14:53:45.499Z,2.90
2022-10-28T14:56:20.847Z,2.83
2022-10-28T14:58:48.561Z,3.10
2022-10-28T15:01:18.473Z,3.00
2022-10-28T15:03:48.124Z,3.20
2022-10-28T15:06:23.865Z,2.63
2022-10-28T15:08:51.091Z,3.20
2022-10-28T15:11:19.429Z,2.95
2022-10-28T15:13:51.328Z,2.90
2022-10-28T15:18:51.677Z,2.92
2022-10-28T15:21:20.660Z,2.88
2022-10-28T15:24:06.948Z,3.35
2022-10-28T15:26:33.713Z,3.03
2022-10-28T15:29:00.761Z,3.10
2022-10-28T15:31:27.404Z,2.80
2022-10-28T15:33:54.060Z,2.60
2022-10-28T15:36:27.243Z,3.58
2022-10-28T15:39:17.506Z,3.92
2022-10-28T15:41:46.088Z,3.10
2022-10-28T15:44:32.564Z,2.83
2022-10-28T15:47:02.364Z,2.83
2022-10-28T15:49:59.469Z,3.00
2022-10-28T15:52:35.273Z,2.90
2022-10-28T15:55:30.601Z,3.00
2022-10-28T15:58:13.755Z,2.90
2022-10-28T16:00:54.710Z,2.95
2022-10-28T16:03:40.884Z,3.05
2022-10-28T16:06:23.729Z,3.20
2022-10-28T16:09:14.245Z,2.88
2022-10-28T16:11:46.577Z,2.75
2022-10-28T16:14:37.620Z,2.95
2022-10-28T16:17:12.818Z,2.70
2022-10-28T16:19:43.724Z,2.65
2022-10-28T16:22:13.520Z,2.75
2022-10-28T16:24:41.412Z,2.10
2022-10-28T16:27:28.753Z,2.53
2022-10-28T16:29:55.462Z,2.70
2022-10-28T16:32:28.766Z,2.78
2022-10-28T16:34:57.880Z,3.13
2022-10-28T16:37:32.167Z,2.92
2022-10-28T16:39:59.052Z,3.08
2022-10-28T16:42:26.106Z,2.90
2022-10-28T16:44:53.154Z,3.10
2022-10-28T16:47:21.678Z,3.30
2022-10-28T16:49:54.496Z,3.10
2022-10-28T16:52:27.653Z,3.47
2022-10-28T16:54:54.948Z,2.67
2022-10-28T16:57:21.862Z,3.33
2022-10-28T16:59:49.299Z,2.53
2022-10-28T17:02:20.094Z,2.97
2022-10-28T17:04:47.003Z,2.63
2022-10-28T17:07:16.367Z,2.88
2022-10-28T17:09:43.390Z,3.28
2022-10-28T17:12:18.451Z,3.08
2022-10-28T17:14:45.413Z,3.08
2022-10-28T17:17:12.807Z,2.63
2022-10-28T17:19:40.423Z,2.35
2022-10-28T17:22:09.294Z,2.78
2022-10-28T17:24:37.081Z,3.60
2022-10-28T17:27:04.750Z,6.38
2022-10-28T17:29:31.491Z,4.28
2022-10-28T17:31:58.250Z,2.70
2022-10-28T17:34:25.028Z,2.65
2022-10-28T17:36:51.782Z,2.67
2022-10-28T17:39:23.264Z,3.28
2022-10-28T17:41:52.550Z,2.85
2022-10-28T17:44:19.294Z,2.97
2022-10-28T17:46:48.497Z,2.55
2022-10-28T17:49:15.615Z,2.70
2022-10-28T17:51:42.669Z,2.53
2022-10-28T17:54:09.600Z,2.88
2022-10-28T17:56:37.049Z,2.97
2022-10-28T17:59:04.417Z,2.70
2022-10-28T18:01:33.554Z,3.00
2022-10-28T18:04:00.917Z,2.75
2022-10-28T18:06:27.642Z,2.58
2022-10-28T18:08:54.320Z,2.90
2022-10-28T18:11:21.511Z,2.83
2022-10-28T18:13:51.445Z,2.60
2022-10-28T18:16:28.467Z,2.80
2022-10-28T18:18:55.876Z,2.60
2022-10-28T18:21:24.656Z,2.53
2022-10-28T18:24:03.600Z,2.50
2022-10-28T18:26:32.275Z,2.78
2022-10-28T18:28:59.373Z,3.00
2022-10-28T18:31:26.249Z,3.28
2022-10-28T18:33:52.950Z,2.88
2022-10-28T18:36:22.200Z,2.55
2022-10-28T18:38:49.117Z,2.60
2022-10-28T18:41:21.288Z,2.45
2022-10-28T18:43:48.449Z,2.58
2022-10-28T18:46:15.099Z,3.30
2022-10-28T18:48:41.847Z,2.80
2022-10-28T18:51:11.316Z,2.65
2022-10-28T18:53:40.341Z,3.10
2022-10-28T18:56:10.063Z,3.38
2022-10-28T18:58:36.923Z,2.92
2022-10-28T19:01:14.330Z,2.60
2022-10-28T19:03:42.052Z,3.35
2022-10-28T19:06:11.120Z,2.92
2022-10-28T19:08:38.544Z,3.63
2022-10-28T19:11:06.580Z,3.17
2022-10-28T19:13:38.299Z,3.17
2022-10-28T19:16:06.072Z,2.97
2022-10-28T19:18:35.575Z,3.00
2022-10-28T19:21:10.112Z,3.38
2022-10-28T19:23:37.908Z,4.00
2022-10-28T19:26:05.722Z,4.38
2022-10-28T19:28:44.081Z,4.50
2022-10-28T19:31:14.112Z,3.88
2022-10-28T19:33:41.719Z,4.22
2022-10-28T19:36:14.573Z,4.78
2022-10-28T19:38:41.292Z,5.13
2022-10-28T19:41:13.895Z,5.22
2022-10-28T19:43:40.960Z,5.10
2022-10-28T19:46:16.265Z,5.05
2022-10-28T19:48:46.244Z,5.07
2022-10-28T19:51:15.203Z,4.30
2022-10-28T19:53:46.697Z,4.95
2022-10-28T19:58:40.915Z,4.25
2022-10-28T20:01:09.186Z,3.60
2022-10-28T20:03:37.714Z,3.45
2022-10-28T20:06:11.223Z,4.38
2022-10-28T20:11:08.182Z,3.50
2022-10-28T20:13:36.409Z,4.32
2022-10-28T20:16:06.317Z,4.03
2022-10-28T20:18:34.212Z,3.80
2022-10-28T20:21:10.573Z,4.28
2022-10-28T20:23:38.624Z,4.88
2022-10-28T20:26:07.007Z,4.28
2022-10-28T20:28:34.540Z,4.57
2022-10-28T20:31:06.833Z,4.35
2022-10-28T20:33:33.531Z,5.00
2022-10-28T20:36:00.501Z,4.85
2022-10-28T20:38:28.493Z,4.97
2022-10-28T20:40:57.752Z,5.47
2022-10-28T20:43:26.504Z,4.32
2022-10-28T20:46:01.071Z,3.75
2022-10-28T20:48:29.591Z,4.20
2022-10-28T20:50:58.619Z,3.53
2022-10-28T20:53:26.740Z,4.47
2022-10-28T20:55:55.865Z,4.10
2022-10-28T20:58:25.314Z,5.22
2022-10-28T21:00:56.549Z,5.00
2022-10-28T21:03:23.556Z,4.78
2022-10-28T21:05:50.377Z,3.83
2022-10-28T21:08:17.054Z,2.92
2022-10-28T21:10:43.774Z,2.75
2022-10-28T21:13:10.446Z,2.70
2022-10-28T21:15:38.872Z,3.63
2022-10-28T21:18:08.080Z,3.08
2022-10-28T21:20:36.096Z,3.50
2022-10-28T21:23:03.224Z,3.67
2022-10-28T21:25:30.361Z,3.80
2022-10-28T21:27:57.939Z,3.53
2022-10-28T21:30:26.818Z,4.82
2022-10-28T21:32:54.362Z,4.28
2022-10-28T21:35:22.048Z,4.18
2022-10-28T21:37:48.731Z,3.70
2022-10-28T21:40:15.967Z,3.28
2022-10-28T21:42:47.999Z,3.47
2022-10-28T21:47:42.621Z,3.28
2022-10-28T21:50:10.140Z,3.47
2022-10-28T21:52:37.027Z,3.33
2022-10-28T21:55:14.560Z,3.35
2022-10-28T21:57:47.553Z,3.50
2022-10-28T22:00:14.681Z,2.83
2022-10-28T22:02:42.006Z,3.58
2022-10-28T22:05:09.408Z,3.97
2022-10-28T22:07:36.266Z,3.90
2022-10-28T22:10:03.087Z,4.32
2022-10-28T22:12:30.140Z,4.57
2022-10-28T22:14:56.824Z,3.65
2022-10-28T22:17:23.816Z,4.15
2022-10-28T22:19:52.554Z,4.05
2022-10-28T22:22:19.534Z,4.20
2022-10-28T22:24:46.592Z,4.35
2022-10-28T22:27:13.525Z,3.78
2022-10-28T22:29:40.629Z,3.72
2022-10-28T22:32:07.710Z,3.55
2022-10-28T22:34:34.829Z,3.40
2022-10-28T22:37:01.775Z,3.88
2022-10-28T22:39:28.831Z,4.53
2022-10-28T22:41:55.947Z,4.40
2022-10-28T22:44:22.613Z,4.40
2022-10-28T22:46:49.331Z,3.67
2022-10-28T22:49:17.253Z,3.65
2022-10-28T22:51:44.428Z,3.40
2022-10-28T22:54:11.278Z,3.45
2022-10-28T22:56:39.391Z,3.03
2022-10-28T22:59:06.335Z,3.95
2022-10-28T23:01:33.351Z,3.53
2022-10-28T23:04:01.127Z,3.75
2022-10-28T23:06:30.575Z,2.92
2022-10-28T23:08:57.475Z,3.38
2022-10-28T23:11:24.808Z,3.15
2022-10-28T23:13:54.110Z,3.53
2022-10-28T23:16:22.891Z,3.25
2022-10-28T23:18:50.845Z,3.22
2022-10-28T23:21:20.286Z,2.78
2022-10-28T23:23:51.276Z,3.03
2022-10-28T23:26:21.110Z,2.78
2022-10-28T23:28:52.909Z,2.50
2022-10-28T23:31:20.661Z,2.78
2022-10-28T23:33:47.914Z,2.90
2022-10-28T23:36:16.130Z,2.78
2022-10-28T23:38:43.383Z,2.88
2022-10-28T23:41:17.385Z,3.00
2022-10-28T23:43:44.467Z,2.78
2022-10-28T23:46:11.793Z,3.03
2022-10-28T23:48:38.879Z,2.63
2022-10-28T23:51:06.423Z,2.90
2022-10-28T23:53:33.112Z,2.63
2022-10-28T23:56:00.384Z,2.40
2022-10-28T23:58:27.308Z,2.38
